sensor_id;sensor_type;location;lat;lon;timestamp;pressure;altitude;pressure_sealevel;temperature;humidity
70833;BME280;58452;59.418;17.962;2023-02-16T00:00:18;101575.16;;;1.76;80.97
70833;BME280;58452;59.418;17.962;2023-02-16T00:02:45;101576.34;;;1.88;80.39
70833;BME280;58452;59.418;17.962;2023-02-16T00:05:26;101575.78;;;1.81;80.53
70833;BME280;58452;59.418;17.962;2023-02-16T00:07:52;101570.84;;;1.78;80.19
70833;BME280;58452;59.418;17.962;2023-02-16T00:10:18;101567.66;;;1.73;80.72
70833;BME280;58452;59.418;17.962;2023-02-16T00:12:43;101569.25;;;1.56;81.43
70833;BME280;58452;59.418;17.962;2023-02-16T00:15:27;101564.59;;;1.65;81.38
70833;BME280;58452;59.418;17.962;2023-02-16T00:17:54;101564.34;;;1.51;82.18
70833;BME280;58452;59.418;17.962;2023-02-16T00:20:21;101552.09;;;1.61;81.77
70833;BME280;58452;59.418;17.962;2023-02-16T00:22:46;101555.53;;;1.60;81.62
70833;BME280;58452;59.418;17.962;2023-02-16T00:25:12;101566.41;;;1.63;81.77
70833;BME280;58452;59.418;17.962;2023-02-16T00:27:37;101563.66;;;1.68;81.45
70833;BME280;58452;59.418;17.962;2023-02-16T00:30:14;101564.09;;;1.77;81.02
70833;BME280;58452;59.418;17.962;2023-02-16T00:32:39;101561.03;;;1.69;81.16
70833;BME280;58452;59.418;17.962;2023-02-16T00:35:16;101558.06;;;1.60;81.76
70833;BME280;58452;59.418;17.962;2023-02-16T00:37:42;101555.84;;;1.72;80.95
70833;BME280;58452;59.418;17.962;2023-02-16T00:40:09;101553.91;;;1.77;81.38
70833;BME280;58452;59.418;17.962;2023-02-16T00:42:35;101554.06;;;1.74;81.09
70833;BME280;58452;59.418;17.962;2023-02-16T00:45:01;101548.78;;;1.79;81.41
70833;BME280;58452;59.418;17.962;2023-02-16T00:47:33;101553.78;;;1.80;81.41
70833;BME280;58452;59.418;17.962;2023-02-16T00:49:59;101544.00;;;1.71;81.43
70833;BME280;58452;59.418;17.962;2023-02-16T00:54:54;101547.00;;;1.61;81.95
70833;BME280;58452;59.418;17.962;2023-02-16T00:57:19;101544.75;;;1.73;81.72
70833;BME280;58452;59.418;17.962;2023-02-16T00:59:46;101540.81;;;1.66;81.55
70833;BME280;58452;59.418;17.962;2023-02-16T01:02:13;101547.06;;;1.79;80.91
70833;BME280;58452;59.418;17.962;2023-02-16T01:04:38;101543.88;;;1.74;80.97
70833;BME280;58452;59.418;17.962;2023-02-16T01:07:11;101537.41;;;1.67;81.74
70833;BME280;58452;59.418;17.962;2023-02-16T01:09:55;101535.91;;;1.43;82.88
70833;BME280;58452;59.418;17.962;2023-02-16T01:12:39;101524.94;;;1.41;82.61
70833;BME280;58452;59.418;17.962;2023-02-16T01:15:05;101523.56;;;1.54;82.25
70833;BME280;58452;59.418;17.962;2023-02-16T01:17:34;101518.88;;;1.64;81.89
70833;BME280;58452;59.418;17.962;2023-02-16T01:19:59;101511.31;;;1.62;81.57
70833;BME280;58452;59.418;17.962;2023-02-16T01:22:24;101507.69;;;1.68;81.71
70833;BME280;58452;59.418;17.962;2023-02-16T01:24:50;101502.84;;;1.62;82.42
70833;BME280;58452;59.418;17.962;2023-02-16T01:27:16;101500.63;;;1.74;81.79
70833;BME280;58452;59.418;17.962;2023-02-16T01:29:41;101505.06;;;1.69;81.80
70833;BME280;58452;59.418;17.962;2023-02-16T01:32:11;101507.97;;;1.80;81.43
70833;BME280;58452;59.418;17.962;2023-02-16T01:34:36;101500.97;;;1.85;80.98
70833;BME280;58452;59.418;17.962;2023-02-16T01:37:02;101505.66;;;1.76;81.25
70833;BME280;58452;59.418;17.962;2023-02-16T01:39:28;101497.44;;;1.69;81.36
70833;BME280;58452;59.418;17.962;2023-02-16T01:42:16;101491.19;;;1.76;81.77
70833;BME280;58452;59.418;17.962;2023-02-16T01:45:03;101493.53;;;1.81;81.27
70833;BME280;58452;59.418;17.962;2023-02-16T01:52:44;101479.25;;;1.97;80.97
70833;BME280;58452;59.418;17.962;2023-02-16T01:57:53;101466.72;;;1.92;80.39
70833;BME280;58452;59.418;17.962;2023-02-16T02:03:23;101453.50;;;2.03;80.02
70833;BME280;58452;59.418;17.962;2023-02-16T02:06:09;101451.25;;;1.97;80.27
70833;BME280;58452;59.418;17.962;2023-02-16T02:08:47;101446.41;;;1.91;80.72
70833;BME280;58452;59.418;17.962;2023-02-16T02:11:19;101452.59;;;1.67;81.53
70833;BME280;58452;59.418;17.962;2023-02-16T02:16:29;101435.19;;;1.76;82.51
70833;BME280;58452;59.418;17.962;2023-02-16T02:18:55;101439.59;;;1.91;81.69
70833;BME280;58452;59.418;17.962;2023-02-16T02:35:50;101419.81;;;1.79;82.29
70833;BME280;58452;59.418;17.962;2023-02-16T02:43:55;101400.25;;;1.80;82.52
70833;BME280;58452;59.418;17.962;2023-02-16T02:46:31;101406.75;;;1.68;82.41
70833;BME280;58452;59.418;17.962;2023-02-16T02:48:57;101405.59;;;1.75;82.44
70833;BME280;58452;59.418;17.962;2023-02-16T02:51:22;101404.25;;;1.67;82.51
70833;BME280;58452;59.418;17.962;2023-02-16T02:59:36;101390.81;;;1.83;82.07
70833;BME280;58452;59.418;17.962;2023-02-16T03:02:23;101392.38;;;1.86;81.91
70833;BME280;58452;59.418;17.962;2023-02-16T03:04:51;101391.00;;;1.60;82.76
70833;BME280;58452;59.418;17.962;2023-02-16T03:07:18;101391.34;;;1.71;82.65
70833;BME280;58452;59.418;17.962;2023-02-16T03:09:46;101383.22;;;1.82;82.47
70833;BME280;58452;59.418;17.962;2023-02-16T03:12:32;101391.94;;;1.76;81.83
70833;BME280;58452;59.418;17.962;2023-02-16T03:15:10;101389.81;;;1.67;82.41
70833;BME280;58452;59.418;17.962;2023-02-16T03:17:36;101391.41;;;1.51;83.51
70833;BME280;58452;59.418;17.962;2023-02-16T03:20:22;101388.63;;;1.37;83.81
70833;BME280;58452;59.418;17.962;2023-02-16T03:23:06;101390.66;;;1.49;83.80
70833;BME280;58452;59.418;17.962;2023-02-16T03:25:51;101374.50;;;1.50;83.21
70833;BME280;58452;59.418;17.962;2023-02-16T03:28:38;101379.63;;;1.30;84.12
70833;BME280;58452;59.418;17.962;2023-02-16T03:31:29;101380.72;;;1.24;84.97
70833;BME280;58452;59.418;17.962;2023-02-16T03:33:56;101377.25;;;1.07;85.30
70833;BME280;58452;59.418;17.962;2023-02-16T03:36:23;101384.88;;;1.07;85.45
70833;BME280;58452;59.418;17.962;2023-02-16T03:38:50;101376.44;;;1.25;85.38
70833;BME280;58452;59.418;17.962;2023-02-16T03:41:16;101377.50;;;1.21;84.84
70833;BME280;58452;59.418;17.962;2023-02-16T03:43:41;101376.59;;;1.22;85.25
70833;BME280;58452;59.418;17.962;2023-02-16T03:46:07;101374.13;;;1.20;84.98
70833;BME280;58452;59.418;17.962;2023-02-16T03:48:32;101355.59;;;1.37;85.02
70833;BME280;58452;59.418;17.962;2023-02-16T03:50:57;101357.06;;;1.22;84.64
70833;BME280;58452;59.418;17.962;2023-02-16T03:53:23;101347.88;;;1.20;85.29
70833;BME280;58452;59.418;17.962;2023-02-16T03:55:48;101357.53;;;1.32;85.40
70833;BME280;58452;59.418;17.962;2023-02-16T03:58:16;101358.34;;;1.51;84.85
70833;BME280;58452;59.418;17.962;2023-02-16T04:00:43;101353.00;;;1.57;84.25
70833;BME280;58452;59.418;17.962;2023-02-16T04:03:09;101349.47;;;1.41;84.38
70833;BME280;58452;59.418;17.962;2023-02-16T04:05:35;101347.63;;;1.44;84.55
70833;BME280;58452;59.418;17.962;2023-02-16T04:08:00;101343.06;;;1.51;83.76
70833;BME280;58452;59.418;17.962;2023-02-16T04:10:26;101336.34;;;1.50;84.22
70833;BME280;58452;59.418;17.962;2023-02-16T04:12:52;101336.91;;;1.38;84.63
70833;BME280;58452;59.418;17.962;2023-02-16T04:15:23;101333.56;;;1.36;84.79
70833;BME280;58452;59.418;17.962;2023-02-16T04:17:50;101334.28;;;1.21;85.36
70833;BME280;58452;59.418;17.962;2023-02-16T04:20:19;101333.47;;;1.20;85.53
70833;BME280;58452;59.418;17.962;2023-02-16T04:22:45;101323.84;;;1.27;85.42
70833;BME280;58452;59.418;17.962;2023-02-16T04:25:11;101326.31;;;1.28;85.27
70833;BME280;58452;59.418;17.962;2023-02-16T04:27:40;101318.31;;;1.36;85.07
70833;BME280;58452;59.418;17.962;2023-02-16T04:30:08;101311.59;;;1.35;84.74
70833;BME280;58452;59.418;17.962;2023-02-16T04:32:33;101311.47;;;1.38;85.39
70833;BME280;58452;59.418;17.962;2023-02-16T04:34:59;101321.09;;;1.50;84.58
70833;BME280;58452;59.418;17.962;2023-02-16T04:37:24;101321.00;;;1.33;84.81
70833;BME280;58452;59.418;17.962;2023-02-16T04:39:50;101315.03;;;1.15;85.85
70833;BME280;58452;59.418;17.962;2023-02-16T04:42:15;101316.94;;;1.29;86.04
70833;BME280;58452;59.418;17.962;2023-02-16T04:44:40;101314.34;;;1.30;85.73
70833;BME280;58452;59.418;17.962;2023-02-16T04:47:06;101306.66;;;1.32;86.31
70833;BME280;58452;59.418;17.962;2023-02-16T04:49:31;101321.63;;;1.38;85.97
70833;BME280;58452;59.418;17.962;2023-02-16T04:51:57;101313.13;;;1.39;85.49
70833;BME280;58452;59.418;17.962;2023-02-16T04:54:22;101310.63;;;1.37;85.49
70833;BME280;58452;59.418;17.962;2023-02-16T04:56:48;101310.00;;;1.51;85.28
70833;BME280;58452;59.418;17.962;2023-02-16T04:59:14;101306.88;;;1.46;84.89
70833;BME280;58452;59.418;17.962;2023-02-16T05:01:40;101308.50;;;1.47;85.14
70833;BME280;58452;59.418;17.962;2023-02-16T05:04:06;101303.75;;;1.39;85.26
70833;BME280;58452;59.418;17.962;2023-02-16T05:06:34;101306.88;;;1.46;85.56
70833;BME280;58452;59.418;17.962;2023-02-16T05:09:00;101305.94;;;1.47;85.11
70833;BME280;58452;59.418;17.962;2023-02-16T05:11:25;101301.69;;;1.29;85.48
70833;BME280;58452;59.418;17.962;2023-02-16T05:14:22;101305.97;;;1.10;86.26
70833;BME280;58452;59.418;17.962;2023-02-16T05:19:35;101302.34;;;0.76;88.40
70833;BME280;58452;59.418;17.962;2023-02-16T05:22:02;101293.78;;;0.97;88.35
70833;BME280;58452;59.418;17.962;2023-02-16T05:24:27;101293.56;;;0.83;88.36
70833;BME280;58452;59.418;17.962;2023-02-16T05:26:53;101282.63;;;0.81;88.15
70833;BME280;58452;59.418;17.962;2023-02-16T05:29:18;101279.69;;;0.90;88.01
70833;BME280;58452;59.418;17.962;2023-02-16T05:31:43;101272.56;;;0.80;88.34
70833;BME280;58452;59.418;17.962;2023-02-16T05:34:09;101266.50;;;0.82;87.98
70833;BME280;58452;59.418;17.962;2023-02-16T05:36:34;101269.69;;;0.87;88.56
70833;BME280;58452;59.418;17.962;2023-02-16T05:39:00;101274.28;;;0.98;88.00
70833;BME280;58452;59.418;17.962;2023-02-16T05:41:25;101274.44;;;0.95;87.27
70833;BME280;58452;59.418;17.962;2023-02-16T05:43:55;101269.75;;;1.05;87.02
70833;BME280;58452;59.418;17.962;2023-02-16T05:46:22;101267.41;;;1.00;86.82
70833;BME280;58452;59.418;17.962;2023-02-16T05:48:48;101267.06;;;1.08;86.69
70833;BME280;58452;59.418;17.962;2023-02-16T05:51:14;101261.16;;;1.07;85.92
70833;BME280;58452;59.418;17.962;2023-02-16T05:53:40;101258.56;;;1.09;86.93
70833;BME280;58452;59.418;17.962;2023-02-16T05:56:05;101265.84;;;0.97;86.41
70833;BME280;58452;59.418;17.962;2023-02-16T05:58:31;101255.88;;;1.12;85.95
70833;BME280;58452;59.418;17.962;2023-02-16T06:00:56;101251.06;;;1.06;86.25
70833;BME280;58452;59.418;17.962;2023-02-16T06:03:23;101245.06;;;1.07;86.32
70833;BME280;58452;59.418;17.962;2023-02-16T06:05:56;101248.25;;;1.12;86.32
70833;BME280;58452;59.418;17.962;2023-02-16T06:08:22;101245.66;;;0.94;87.26
70833;BME280;58452;59.418;17.962;2023-02-16T06:10:49;101231.09;;;1.17;86.57
70833;BME280;58452;59.418;17.962;2023-02-16T06:13:14;101233.97;;;0.90;87.12
70833;BME280;58452;59.418;17.962;2023-02-16T06:15:40;101227.22;;;1.08;87.69
70833;BME280;58452;59.418;17.962;2023-02-16T06:18:06;101232.38;;;1.07;87.26
70833;BME280;58452;59.418;17.962;2023-02-16T06:20:31;101224.88;;;1.04;87.31
70833;BME280;58452;59.418;17.962;2023-02-16T06:22:57;101227.97;;;0.73;89.05
70833;BME280;58452;59.418;17.962;2023-02-16T06:25:22;101220.09;;;0.79;89.22
70833;BME280;58452;59.418;17.962;2023-02-16T06:27:47;101227.38;;;0.86;89.04
70833;BME280;58452;59.418;17.962;2023-02-16T06:30:14;101231.34;;;0.73;89.42
70833;BME280;58452;59.418;17.962;2023-02-16T06:32:39;101226.94;;;0.58;90.76
70833;BME280;58452;59.418;17.962;2023-02-16T06:35:05;101228.56;;;0.59;90.82
70833;BME280;58452;59.418;17.962;2023-02-16T06:37:31;101237.59;;;0.46;91.72
70833;BME280;58452;59.418;17.962;2023-02-16T06:39:56;101239.97;;;0.51;91.47
70833;BME280;58452;59.418;17.962;2023-02-16T06:42:22;101235.75;;;0.49;91.63
70833;BME280;58452;59.418;17.962;2023-02-16T06:44:47;101240.19;;;0.44;92.54
70833;BME280;58452;59.418;17.962;2023-02-16T06:47:13;101234.31;;;0.44;92.50
70833;BME280;58452;59.418;17.962;2023-02-16T06:49:38;101239.97;;;0.51;92.94
70833;BME280;58452;59.418;17.962;2023-02-16T06:52:04;101242.41;;;0.52;92.28
70833;BME280;58452;59.418;17.962;2023-02-16T06:54:29;101244.63;;;0.60;92.74
70833;BME280;58452;59.418;17.962;2023-02-16T06:56:55;101233.13;;;0.71;91.75
70833;BME280;58452;59.418;17.962;2023-02-16T06:59:20;101233.63;;;0.59;92.31
70833;BME280;58452;59.418;17.962;2023-02-16T07:01:45;101228.31;;;0.65;92.21
70833;BME280;58452;59.418;17.962;2023-02-16T07:04:11;101223.25;;;0.65;91.79
70833;BME280;58452;59.418;17.962;2023-02-16T07:06:37;101231.22;;;0.76;91.17
70833;BME280;58452;59.418;17.962;2023-02-16T07:09:02;101218.06;;;0.67;91.21
70833;BME280;58452;59.418;17.962;2023-02-16T07:11:28;101220.22;;;0.76;91.57
70833;BME280;58452;59.418;17.962;2023-02-16T07:13:53;101214.63;;;0.88;91.34
70833;BME280;58452;59.418;17.962;2023-02-16T07:16:19;101215.50;;;1.06;90.65
70833;BME280;58452;59.418;17.962;2023-02-16T07:18:44;101217.91;;;1.09;90.76
70833;BME280;58452;59.418;17.962;2023-02-16T07:21:10;101214.72;;;1.04;89.91
70833;BME280;58452;59.418;17.962;2023-02-16T07:23:36;101213.56;;;1.11;90.03
70833;BME280;58452;59.418;17.962;2023-02-16T07:26:02;101206.69;;;1.13;90.11
70833;BME280;58452;59.418;17.962;2023-02-16T07:28:27;101203.72;;;1.22;89.69
70833;BME280;58452;59.418;17.962;2023-02-16T07:30:53;101198.63;;;1.22;89.71
70833;BME280;58452;59.418;17.962;2023-02-16T07:33:18;101206.59;;;1.14;89.56
70833;BME280;58452;59.418;17.962;2023-02-16T07:35:45;101206.56;;;1.16;89.63
70833;BME280;58452;59.418;17.962;2023-02-16T07:38:10;101209.63;;;1.04;90.18
70833;BME280;58452;59.418;17.962;2023-02-16T07:40:36;101205.72;;;1.15;90.78
70833;BME280;58452;59.418;17.962;2023-02-16T07:43:04;101200.16;;;1.26;90.55
70833;BME280;58452;59.418;17.962;2023-02-16T07:45:30;101194.78;;;1.32;89.53
70833;BME280;58452;59.418;17.962;2023-02-16T07:48:00;101199.09;;;1.30;89.36
70833;BME280;58452;59.418;17.962;2023-02-16T07:50:25;101192.47;;;1.27;89.40
70833;BME280;58452;59.418;17.962;2023-02-16T07:52:51;101202.75;;;1.43;89.36
70833;BME280;58452;59.418;17.962;2023-02-16T07:55:16;101203.47;;;1.45;88.85
70833;BME280;58452;59.418;17.962;2023-02-16T07:57:42;101193.63;;;1.56;89.29
70833;BME280;58452;59.418;17.962;2023-02-16T08:00:09;101196.41;;;1.69;88.58
70833;BME280;58452;59.418;17.962;2023-02-16T08:02:34;101193.63;;;1.56;88.21
70833;BME280;58452;59.418;17.962;2023-02-16T08:05:00;101194.25;;;1.61;88.24
70833;BME280;58452;59.418;17.962;2023-02-16T08:07:26;101189.25;;;1.41;89.16
70833;BME280;58452;59.418;17.962;2023-02-16T08:09:52;101185.53;;;1.48;88.67
70833;BME280;58452;59.418;17.962;2023-02-16T08:12:18;101187.97;;;1.32;89.46
70833;BME280;58452;59.418;17.962;2023-02-16T08:14:44;101186.94;;;1.36;90.06
70833;BME280;58452;59.418;17.962;2023-02-16T08:17:11;101185.69;;;1.45;89.49
70833;BME280;58452;59.418;17.962;2023-02-16T08:19:37;101179.88;;;1.60;89.28
70833;BME280;58452;59.418;17.962;2023-02-16T08:22:03;101179.91;;;1.41;89.64
70833;BME280;58452;59.418;17.962;2023-02-16T08:24:29;101179.25;;;1.55;88.54
70833;BME280;58452;59.418;17.962;2023-02-16T08:26:55;101175.34;;;1.65;89.03
70833;BME280;58452;59.418;17.962;2023-02-16T08:29:22;101180.00;;;1.57;89.14
70833;BME280;58452;59.418;17.962;2023-02-16T08:31:48;101178.06;;;1.62;88.80
70833;BME280;58452;59.418;17.962;2023-02-16T08:34:16;101165.50;;;1.59;88.92
70833;BME280;58452;59.418;17.962;2023-02-16T08:36:43;101157.44;;;1.68;88.54
70833;BME280;58452;59.418;17.962;2023-02-16T08:39:14;101157.28;;;1.71;88.55
70833;BME280;58452;59.418;17.962;2023-02-16T08:41:41;101157.41;;;1.85;88.68
70833;BME280;58452;59.418;17.962;2023-02-16T08:44:08;101156.50;;;1.69;88.08
70833;BME280;58452;59.418;17.962;2023-02-16T08:46:35;101145.00;;;1.79;88.48
70833;BME280;58452;59.418;17.962;2023-02-16T08:49:03;101148.63;;;1.91;88.10
70833;BME280;58452;59.418;17.962;2023-02-16T08:51:32;101150.88;;;1.80;88.15
70833;BME280;58452;59.418;17.962;2023-02-16T08:53:59;101141.31;;;1.85;88.38
70833;BME280;58452;59.418;17.962;2023-02-16T08:56:25;101142.81;;;1.89;88.15
70833;BME280;58452;59.418;17.962;2023-02-16T08:58:51;101145.88;;;1.95;88.39
70833;BME280;58452;59.418;17.962;2023-02-16T09:01:17;101139.88;;;1.96;87.83
70833;BME280;58452;59.418;17.962;2023-02-16T09:03:44;101144.03;;;1.82;88.68
70833;BME280;58452;59.418;17.962;2023-02-16T09:06:12;101136.16;;;1.86;88.42
70833;BME280;58452;59.418;17.962;2023-02-16T09:08:38;101129.72;;;1.96;88.21
70833;BME280;58452;59.418;17.962;2023-02-16T09:11:12;101121.75;;;2.03;87.89
70833;BME280;58452;59.418;17.962;2023-02-16T09:13:39;101124.97;;;2.06;87.98
70833;BME280;58452;59.418;17.962;2023-02-16T09:16:07;101116.22;;;2.12;86.73
70833;BME280;58452;59.418;17.962;2023-02-16T09:18:34;101113.34;;;2.18;87.54
70833;BME280;58452;59.418;17.962;2023-02-16T09:21:15;101115.72;;;2.21;87.38
70833;BME280;58452;59.418;17.962;2023-02-16T09:23:43;101121.69;;;2.37;86.34
70833;BME280;58452;59.418;17.962;2023-02-16T09:26:12;101119.97;;;2.20;86.89
70833;BME280;58452;59.418;17.962;2023-02-16T09:28:38;101114.44;;;2.29;86.40
70833;BME280;58452;59.418;17.962;2023-02-16T09:31:12;101115.44;;;2.27;86.22
70833;BME280;58452;59.418;17.962;2023-02-16T09:33:39;101118.53;;;2.32;86.29
70833;BME280;58452;59.418;17.962;2023-02-16T09:36:07;101123.66;;;2.47;86.30
70833;BME280;58452;59.418;17.962;2023-02-16T09:38:33;101126.44;;;2.43;85.52
70833;BME280;58452;59.418;17.962;2023-02-16T09:41:06;101118.63;;;2.46;85.70
70833;BME280;58452;59.418;17.962;2023-02-16T09:44:04;101121.34;;;2.43;85.77
70833;BME280;58452;59.418;17.962;2023-02-16T09:46:34;101117.97;;;2.42;85.67
70833;BME280;58452;59.418;17.962;2023-02-16T09:49:02;101115.94;;;2.49;85.76
70833;BME280;58452;59.418;17.962;2023-02-16T09:51:39;101109.94;;;2.50;85.21
70833;BME280;58452;59.418;17.962;2023-02-16T09:57:06;101095.22;;;2.55;85.31
70833;BME280;58452;59.418;17.962;2023-02-16T10:05:06;101087.84;;;2.66;84.34
70833;BME280;58452;59.418;17.962;2023-02-16T10:08:00;101097.06;;;2.53;85.94
70833;BME280;58452;59.418;17.962;2023-02-16T10:13:05;101084.28;;;2.69;85.10
70833;BME280;58452;59.418;17.962;2023-02-16T10:15:34;101081.84;;;2.67;84.52
70833;BME280;58452;59.418;17.962;2023-02-16T10:18:27;101073.44;;;2.65;85.42
70833;BME280;58452;59.418;17.962;2023-02-16T10:20:56;101071.25;;;2.59;85.96
70833;BME280;58452;59.418;17.962;2023-02-16T10:23:50;101070.41;;;2.74;85.67
70833;BME280;58452;59.418;17.962;2023-02-16T10:26:32;101066.78;;;2.78;84.89
70833;BME280;58452;59.418;17.962;2023-02-16T10:29:06;101055.91;;;2.90;84.57
70833;BME280;58452;59.418;17.962;2023-02-16T10:31:39;101060.69;;;2.97;84.59
70833;BME280;58452;59.418;17.962;2023-02-16T10:45:53;101049.50;;;2.83;84.56
70833;BME280;58452;59.418;17.962;2023-02-16T10:48:22;101044.09;;;2.89;84.80
70833;BME280;58452;59.418;17.962;2023-02-16T10:51:00;101056.00;;;2.89;85.13
70833;BME280;58452;59.418;17.962;2023-02-16T10:55:56;101047.34;;;3.07;85.32
70833;BME280;58452;59.418;17.962;2023-02-16T10:58:24;101047.09;;;3.12;83.64
70833;BME280;58452;59.418;17.962;2023-02-16T11:01:02;101045.06;;;3.17;83.91
70833;BME280;58452;59.418;17.962;2023-02-16T11:03:33;101050.94;;;3.19;83.32
70833;BME280;58452;59.418;17.962;2023-02-16T11:06:19;101050.38;;;3.28;83.54
70833;BME280;58452;59.418;17.962;2023-02-16T11:08:51;101045.72;;;3.20;83.73
70833;BME280;58452;59.418;17.962;2023-02-16T11:11:19;101040.81;;;3.17;84.46
70833;BME280;58452;59.418;17.962;2023-02-16T11:13:48;101052.53;;;3.20;83.79
70833;BME280;58452;59.418;17.962;2023-02-16T11:16:22;101036.56;;;3.32;83.68
70833;BME280;58452;59.418;17.962;2023-02-16T11:18:59;101032.75;;;3.39;82.83
70833;BME280;58452;59.418;17.962;2023-02-16T11:21:50;101033.28;;;3.30;83.42
70833;BME280;58452;59.418;17.962;2023-02-16T11:24:28;101034.56;;;3.37;82.84
70833;BME280;58452;59.418;17.962;2023-02-16T11:29:28;101036.53;;;3.18;84.54
70833;BME280;58452;59.418;17.962;2023-02-16T11:31:54;101031.25;;;3.21;84.25
70833;BME280;58452;59.418;17.962;2023-02-16T11:34:35;101035.97;;;3.27;84.26
70833;BME280;58452;59.418;17.962;2023-02-16T11:39:56;101027.91;;;3.05;84.71
70833;BME280;58452;59.418;17.962;2023-02-16T11:44:56;101034.63;;;3.21;83.79
70833;BME280;58452;59.418;17.962;2023-02-16T11:47:23;101037.09;;;3.23;84.67
70833;BME280;58452;59.418;17.962;2023-02-16T11:50:05;101043.91;;;3.22;84.52
70833;BME280;58452;59.418;17.962;2023-02-16T11:52:31;101035.25;;;3.25;85.03
70833;BME280;58452;59.418;17.962;2023-02-16T11:55:00;101033.53;;;3.25;84.65
70833;BME280;58452;59.418;17.962;2023-02-16T11:57:31;101029.91;;;3.29;84.59
70833;BME280;58452;59.418;17.962;2023-02-16T11:59:59;101034.63;;;3.21;84.04
70833;BME280;58452;59.418;17.962;2023-02-16T12:02:48;101030.34;;;3.22;84.40
70833;BME280;58452;59.418;17.962;2023-02-16T12:05:35;101032.50;;;3.14;85.08
70833;BME280;58452;59.418;17.962;2023-02-16T12:16:29;101031.00;;;3.25;85.20
70833;BME280;58452;59.418;17.962;2023-02-16T12:19:56;101021.31;;;3.30;83.78
70833;BME280;58452;59.418;17.962;2023-02-16T12:31:14;101026.91;;;3.23;85.30
70833;BME280;58452;59.418;17.962;2023-02-16T12:42:22;101014.88;;;3.25;84.85
70833;BME280;58452;59.418;17.962;2023-02-16T12:44:53;101011.41;;;3.26;85.05
70833;BME280;58452;59.418;17.962;2023-02-16T12:47:40;101008.41;;;3.33;84.78
70833;BME280;58452;59.418;17.962;2023-02-16T12:50:23;101005.94;;;3.32;84.17
70833;BME280;58452;59.418;17.962;2023-02-16T12:53:05;101009.22;;;3.34;84.36
70833;BME280;58452;59.418;17.962;2023-02-16T12:55:48;101004.94;;;3.34;84.38
70833;BME280;58452;59.418;17.962;2023-02-16T12:58:17;101004.41;;;3.43;84.22
70833;BME280;58452;59.418;17.962;2023-02-16T13:00:45;101005.56;;;3.38;84.46
70833;BME280;58452;59.418;17.962;2023-02-16T13:05:49;101002.13;;;3.39;84.85
70833;BME280;58452;59.418;17.962;2023-02-16T13:09:21;101003.78;;;3.40;84.69
70833;BME280;58452;59.418;17.962;2023-02-16T13:11:32;101001.94;;;3.42;83.75
70833;BME280;58452;59.418;17.962;2023-02-16T13:14:03;100999.78;;;3.50;84.34
70833;BME280;58452;59.418;17.962;2023-02-16T13:16:38;100994.66;;;3.50;83.86
70833;BME280;58452;59.418;17.962;2023-02-16T13:19:10;100991.56;;;3.45;84.22
70833;BME280;58452;59.418;17.962;2023-02-16T13:44:47;101004.81;;;3.66;83.11
70833;BME280;58452;59.418;17.962;2023-02-16T13:47:18;100997.66;;;3.71;83.39
70833;BME280;58452;59.418;17.962;2023-02-16T13:49:46;100990.31;;;3.66;82.91
70833;BME280;58452;59.418;17.962;2023-02-16T13:52:31;100995.41;;;3.52;84.06
70833;BME280;58452;59.418;17.962;2023-02-16T13:54:59;100992.75;;;3.54;83.63
70833;BME280;58452;59.418;17.962;2023-02-16T14:00:34;100998.88;;;3.65;84.11
70833;BME280;58452;59.418;17.962;2023-02-16T14:05:31;100993.13;;;3.62;84.03
70833;BME280;58452;59.418;17.962;2023-02-16T14:16:07;100985.75;;;3.57;84.14
70833;BME280;58452;59.418;17.962;2023-02-16T14:18:55;100978.53;;;3.64;83.49
70833;BME280;58452;59.418;17.962;2023-02-16T14:21:37;100991.41;;;3.62;84.05
70833;BME280;58452;59.418;17.962;2023-02-16T14:24:05;100982.28;;;3.58;84.56
70833;BME280;58452;59.418;17.962;2023-02-16T14:26:57;100981.38;;;3.73;83.65
70833;BME280;58452;59.418;17.962;2023-02-16T14:29:58;100984.38;;;3.66;84.29
70833;BME280;58452;59.418;17.962;2023-02-16T14:32:28;100988.41;;;3.56;84.51
70833;BME280;58452;59.418;17.962;2023-02-16T14:35:05;100981.91;;;3.64;84.26
70833;BME280;58452;59.418;17.962;2023-02-16T14:37:54;100979.63;;;3.60;84.47
70833;BME280;58452;59.418;17.962;2023-02-16T14:40:40;100987.75;;;3.66;84.03
70833;BME280;58452;59.418;17.962;2023-02-16T14:43:27;100991.78;;;3.70;83.90
70833;BME280;58452;59.418;17.962;2023-02-16T14:56:55;100981.56;;;3.70;84.03
70833;BME280;58452;59.418;17.962;2023-02-16T14:59:31;100982.91;;;3.62;84.94
70833;BME280;58452;59.418;17.962;2023-02-16T15:02:00;100980.44;;;3.60;84.38
70833;BME280;58452;59.418;17.962;2023-02-16T15:04:45;100981.09;;;3.64;84.62
70833;BME280;58452;59.418;17.962;2023-02-16T15:07:11;100982.09;;;3.61;85.50
70833;BME280;58452;59.418;17.962;2023-02-16T15:09:40;100980.94;;;3.67;84.85
70833;BME280;58452;59.418;17.962;2023-02-16T15:12:10;100986.47;;;3.73;84.80
70833;BME280;58452;59.418;17.962;2023-02-16T15:15:00;100974.63;;;3.72;84.87
70833;BME280;58452;59.418;17.962;2023-02-16T15:17:30;100971.50;;;3.67;85.05
70833;BME280;58452;59.418;17.962;2023-02-16T15:20:03;100968.25;;;3.65;85.60
70833;BME280;58452;59.418;17.962;2023-02-16T15:22:31;100964.22;;;3.75;85.26
70833;BME280;58452;59.418;17.962;2023-02-16T15:27:23;100966.22;;;3.56;86.14
70833;BME280;58452;59.418;17.962;2023-02-16T15:30:07;100963.97;;;3.66;85.86
70833;BME280;58452;59.418;17.962;2023-02-16T15:32:33;100961.88;;;3.58;86.70
70833;BME280;58452;59.418;17.962;2023-02-16T15:35:09;100959.13;;;3.61;86.19
70833;BME280;58452;59.418;17.962;2023-02-16T15:37:35;100959.50;;;3.69;86.85
70833;BME280;58452;59.418;17.962;2023-02-16T15:40:18;100963.84;;;3.67;85.96
70833;BME280;58452;59.418;17.962;2023-02-16T15:42:49;100953.94;;;3.63;86.61